sensor_id;sensor_type;location;lat;lon;timestamp;temperature;humidity
15450;DHT22;7826;49.784;9.934;2022-09-09T00:04:09;14.80;99.90
15450;DHT22;7826;49.784;9.934;2022-09-09T00:07:13;14.80;99.90
15450;DHT22;7826;49.784;9.934;2022-09-09T00:15:24;14.70;99.90
15450;DHT22;7826;49.784;9.934;2022-09-09T00:20:38;14.70;99.90
15450;DHT22;7826;49.784;9.934;2022-09-09T00:23:28;14.70;99.90
15450;DHT22;7826;49.784;9.934;2022-09-09T00:28:55;14.80;99.90
15450;DHT22;7826;49.784;9.934;2022-09-09T00:31:28;14.80;99.90
15450;DHT22;7826;49.784;9.934;2022-09-09T00:36:43;14.60;99.90
15450;DHT22;7826;49.784;9.934;2022-09-09T00:39:45;14.50;99.90
15450;DHT22;7826;49.784;9.934;2022-09-09T00:42:24;14.50;99.90
15450;DHT22;7826;49.784;9.934;2022-09-09T00:47:38;14.40;99.90
15450;DHT22;7826;49.784;9.934;2022-09-09T00:58:32;14.50;99.90
15450;DHT22;7826;49.784;9.934;2022-09-09T01:01:10;14.60;99.90
15450;DHT22;7826;49.784;9.934;2022-09-09T01:03:42;14.60;99.90
15450;DHT22;7826;49.784;9.934;2022-09-09T01:06:34;14.70;99.90
15450;DHT22;7826;49.784;9.934;2022-09-09T01:09:29;14.70;99.90
15450;DHT22;7826;49.784;9.934;2022-09-09T01:12:09;14.80;99.90
15450;DHT22;7826;49.784;9.934;2022-09-09T01:17:23;14.90;99.90
15450;DHT22;7826;49.784;9.934;2022-09-09T01:27:56;14.90;99.90
15450;DHT22;7826;49.784;9.934;2022-09-09T01:30:25;15.00;99.90
15450;DHT22;7826;49.784;9.934;2022-09-09T01:32:57;15.00;99.90
15450;DHT22;7826;49.784;9.934;2022-09-09T01:38:12;15.00;99.90
15450;DHT22;7826;49.784;9.934;2022-09-09T01:40:38;15.00;99.90
15450;DHT22;7826;49.784;9.934;2022-09-09T01:43:05;15.00;99.90
15450;DHT22;7826;49.784;9.934;2022-09-09T01:45:34;15.00;99.90
15450;DHT22;7826;49.784;9.934;2022-09-09T01:48:00;15.00;99.90
15450;DHT22;7826;49.784;9.934;2022-09-09T01:50:28;14.90;99.90
15450;DHT22;7826;49.784;9.934;2022-09-09T01:52:57;14.90;99.90
15450;DHT22;7826;49.784;9.934;2022-09-09T01:55:39;15.00;99.90
15450;DHT22;7826;49.784;9.934;2022-09-09T02:01:02;14.90;99.90
15450;DHT22;7826;49.784;9.934;2022-09-09T02:03:32;14.90;99.90
15450;DHT22;7826;49.784;9.934;2022-09-09T02:06:27;14.90;99.90
15450;DHT22;7826;49.784;9.934;2022-09-09T02:08:59;15.00;99.90
15450;DHT22;7826;49.784;9.934;2022-09-09T02:11:29;15.00;99.90
15450;DHT22;7826;49.784;9.934;2022-09-09T02:14:10;15.00;99.90
15450;DHT22;7826;49.784;9.934;2022-09-09T02:19:48;15.00;99.90
15450;DHT22;7826;49.784;9.934;2022-09-09T02:22:17;15.00;99.90
15450;DHT22;7826;49.784;9.934;2022-09-09T02:24:46;15.00;99.90
15450;DHT22;7826;49.784;9.934;2022-09-09T02:27:14;15.00;99.90
15450;DHT22;7826;49.784;9.934;2022-09-09T02:29:43;15.00;99.90
15450;DHT22;7826;49.784;9.934;2022-09-09T02:32:19;14.90;99.90
15450;DHT22;7826;49.784;9.934;2022-09-09T02:34:54;14.90;99.90
15450;DHT22;7826;49.784;9.934;2022-09-09T02:37:25;15.00;99.90
15450;DHT22;7826;49.784;9.934;2022-09-09T02:39:55;15.00;99.90
15450;DHT22;7826;49.784;9.934;2022-09-09T02:42:21;14.90;99.90
15450;DHT22;7826;49.784;9.934;2022-09-09T02:44:48;14.90;99.90
15450;DHT22;7826;49.784;9.934;2022-09-09T02:50:16;15.00;99.90
15450;DHT22;7826;49.784;9.934;2022-09-09T02:58:06;14.90;99.90
15450;DHT22;7826;49.784;9.934;2022-09-09T03:00:33;14.80;99.90
15450;DHT22;7826;49.784;9.934;2022-09-09T03:03:03;14.80;99.90
15450;DHT22;7826;49.784;9.934;2022-09-09T03:05:30;14.80;99.90
15450;DHT22;7826;49.784;9.934;2022-09-09T03:07:56;14.70;99.90
15450;DHT22;7826;49.784;9.934;2022-09-09T03:10:22;14.80;99.90
15450;DHT22;7826;49.784;9.934;2022-09-09T03:12:49;14.70;99.90
15450;DHT22;7826;49.784;9.934;2022-09-09T03:15:17;14.70;99.90
15450;DHT22;7826;49.784;9.934;2022-09-09T03:17:43;14.70;99.90
15450;DHT22;7826;49.784;9.934;2022-09-09T03:20:10;14.70;99.90
15450;DHT22;7826;49.784;9.934;2022-09-09T03:22:36;14.70;99.90
15450;DHT22;7826;49.784;9.934;2022-09-09T03:25:03;14.70;99.90
15450;DHT22;7826;49.784;9.934;2022-09-09T03:27:30;14.70;99.90
15450;DHT22;7826;49.784;9.934;2022-09-09T03:29:56;14.70;99.90
15450;DHT22;7826;49.784;9.934;2022-09-09T03:32:24;14.70;99.90
15450;DHT22;7826;49.784;9.934;2022-09-09T03:34:52;14.70;99.90
15450;DHT22;7826;49.784;9.934;2022-09-09T03:37:19;14.70;99.90
15450;DHT22;7826;49.784;9.934;2022-09-09T03:39:46;14.70;99.90
15450;DHT22;7826;49.784;9.934;2022-09-09T03:42:13;14.70;99.90
15450;DHT22;7826;49.784;9.934;2022-09-09T03:44:46;14.80;99.90
15450;DHT22;7826;49.784;9.934;2022-09-09T03:47:20;14.80;99.90
15450;DHT22;7826;49.784;9.934;2022-09-09T03:49:47;14.80;99.90
15450;DHT22;7826;49.784;9.934;2022-09-09T03:52:15;14.90;99.90
15450;DHT22;7826;49.784;9.934;2022-09-09T03:54:41;14.90;99.90
15450;DHT22;7826;49.784;9.934;2022-09-09T03:57:11;14.90;99.90
15450;DHT22;7826;49.784;9.934;2022-09-09T03:59:37;14.90;99.90
15450;DHT22;7826;49.784;9.934;2022-09-09T04:02:04;14.90;99.90
15450;DHT22;7826;49.784;9.934;2022-09-09T04:04:30;14.90;99.90
15450;DHT22;7826;49.784;9.934;2022-09-09T04:06:57;14.90;99.90
15450;DHT22;7826;49.784;9.934;2022-09-09T04:09:23;14.90;99.90
15450;DHT22;7826;49.784;9.934;2022-09-09T04:11:49;14.90;99.90
15450;DHT22;7826;49.784;9.934;2022-09-09T04:14:16;14.90;99.90
15450;DHT22;7826;49.784;9.934;2022-09-09T04:16:42;15.00;99.90
15450;DHT22;7826;49.784;9.934;2022-09-09T04:19:13;15.00;99.90
15450;DHT22;7826;49.784;9.934;2022-09-09T04:21:41;15.00;99.90
15450;DHT22;7826;49.784;9.934;2022-09-09T04:24:08;15.00;99.90
15450;DHT22;7826;49.784;9.934;2022-09-09T04:26:35;15.00;99.90
15450;DHT22;7826;49.784;9.934;2022-09-09T04:29:03;15.00;99.90
15450;DHT22;7826;49.784;9.934;2022-09-09T04:31:30;15.00;99.90
15450;DHT22;7826;49.784;9.934;2022-09-09T04:33:56;15.00;99.90
15450;DHT22;7826;49.784;9.934;2022-09-09T04:36:23;15.00;99.90
15450;DHT22;7826;49.784;9.934;2022-09-09T04:38:49;14.90;99.90
15450;DHT22;7826;49.784;9.934;2022-09-09T04:41:15;14.80;99.90
15450;DHT22;7826;49.784;9.934;2022-09-09T04:43:42;14.80;99.90
15450;DHT22;7826;49.784;9.934;2022-09-09T04:46:08;14.80;99.90
15450;DHT22;7826;49.784;9.934;2022-09-09T04:48:35;14.80;99.90
15450;DHT22;7826;49.784;9.934;2022-09-09T04:51:03;14.80;99.90
15450;DHT22;7826;49.784;9.934;2022-09-09T04:53:31;14.80;99.90
15450;DHT22;7826;49.784;9.934;2022-09-09T04:56:14;14.80;99.90
15450;DHT22;7826;49.784;9.934;2022-09-09T04:58:41;14.80;99.90
15450;DHT22;7826;49.784;9.934;2022-09-09T05:01:15;14.80;99.90
15450;DHT22;7826;49.784;9.934;2022-09-09T05:03:43;14.70;99.90
15450;DHT22;7826;49.784;9.934;2022-09-09T05:06:18;14.70;99.90
15450;DHT22;7826;49.784;9.934;2022-09-09T05:08:45;14.70;99.90
15450;DHT22;7826;49.784;9.934;2022-09-09T05:11:23;14.80;99.90
15450;DHT22;7826;49.784;9.934;2022-09-09T05:13:51;14.80;99.90
15450;DHT22;7826;49.784;9.934;2022-09-09T05:16:18;14.90;99.90
15450;DHT22;7826;49.784;9.934;2022-09-09T05:18:44;14.90;99.90
15450;DHT22;7826;49.784;9.934;2022-09-09T05:21:13;15.00;99.90
15450;DHT22;7826;49.784;9.934;2022-09-09T05:23:40;15.10;99.90
15450;DHT22;7826;49.784;9.934;2022-09-09T05:26:11;15.20;99.90
15450;DHT22;7826;49.784;9.934;2022-09-09T05:28:38;15.30;99.90
15450;DHT22;7826;49.784;9.934;2022-09-09T05:31:06;15.40;99.90
15450;DHT22;7826;49.784;9.934;2022-09-09T05:33:38;15.60;99.90
15450;DHT22;7826;49.784;9.934;2022-09-09T05:36:08;15.90;99.90
15450;DHT22;7826;49.784;9.934;2022-09-09T05:38:36;15.90;99.90
15450;DHT22;7826;49.784;9.934;2022-09-09T05:41:04;16.00;99.90
15450;DHT22;7826;49.784;9.934;2022-09-09T05:43:31;16.00;99.90
15450;DHT22;7826;49.784;9.934;2022-09-09T05:46:06;16.10;99.90
15450;DHT22;7826;49.784;9.934;2022-09-09T05:48:42;16.10;99.90
15450;DHT22;7826;49.784;9.934;2022-09-09T05:51:11;16.20;99.90
15450;DHT22;7826;49.784;9.934;2022-09-09T05:53:44;16.20;99.90
15450;DHT22;7826;49.784;9.934;2022-09-09T05:56:13;16.30;99.90
15450;DHT22;7826;49.784;9.934;2022-09-09T05:58:50;16.30;99.90
15450;DHT22;7826;49.784;9.934;2022-09-09T06:01:24;16.40;99.90
15450;DHT22;7826;49.784;9.934;2022-09-09T06:03:51;16.40;99.90
15450;DHT22;7826;49.784;9.934;2022-09-09T06:06:20;16.40;99.90
15450;DHT22;7826;49.784;9.934;2022-09-09T06:08:47;16.40;99.90
15450;DHT22;7826;49.784;9.934;2022-09-09T06:11:17;16.40;99.90
15450;DHT22;7826;49.784;9.934;2022-09-09T06:13:44;16.40;99.90
15450;DHT22;7826;49.784;9.934;2022-09-09T06:16:12;16.40;99.90
15450;DHT22;7826;49.784;9.934;2022-09-09T06:18:40;16.30;99.90
15450;DHT22;7826;49.784;9.934;2022-09-09T06:21:11;16.20;99.90
15450;DHT22;7826;49.784;9.934;2022-09-09T06:23:39;16.20;99.90
15450;DHT22;7826;49.784;9.934;2022-09-09T06:26:09;16.20;99.90
15450;DHT22;7826;49.784;9.934;2022-09-09T06:28:36;16.10;99.90
15450;DHT22;7826;49.784;9.934;2022-09-09T06:31:09;16.10;99.90
15450;DHT22;7826;49.784;9.934;2022-09-09T06:33:40;16.10;99.90
15450;DHT22;7826;49.784;9.934;2022-09-09T06:36:12;16.00;99.90
15450;DHT22;7826;49.784;9.934;2022-09-09T06:38:40;16.00;99.90
15450;DHT22;7826;49.784;9.934;2022-09-09T06:41:07;16.00;99.90
15450;DHT22;7826;49.784;9.934;2022-09-09T06:43:34;16.00;99.90
15450;DHT22;7826;49.784;9.934;2022-09-09T06:46:10;16.10;99.90
15450;DHT22;7826;49.784;9.934;2022-09-09T06:48:38;16.10;99.90
15450;DHT22;7826;49.784;9.934;2022-09-09T06:51:10;16.20;99.90
15450;DHT22;7826;49.784;9.934;2022-09-09T06:53:38;16.30;99.90
15450;DHT22;7826;49.784;9.934;2022-09-09T06:58:39;16.60;99.90
15450;DHT22;7826;49.784;9.934;2022-09-09T07:01:12;16.70;99.90
15450;DHT22;7826;49.784;9.934;2022-09-09T07:03:42;17.00;99.90
15450;DHT22;7826;49.784;9.934;2022-09-09T07:06:18;17.20;99.90
15450;DHT22;7826;49.784;9.934;2022-09-09T07:08:49;17.50;99.90
15450;DHT22;7826;49.784;9.934;2022-09-09T07:11:16;17.90;99.90
15450;DHT22;7826;49.784;9.934;2022-09-09T07:13:42;18.30;99.90
15450;DHT22;7826;49.784;9.934;2022-09-09T07:16:12;18.70;99.90
15450;DHT22;7826;49.784;9.934;2022-09-09T07:18:41;19.00;99.90
15450;DHT22;7826;49.784;9.934;2022-09-09T07:21:10;19.10;99.90
15450;DHT22;7826;49.784;9.934;2022-09-09T07:23:39;19.10;99.90
15450;DHT22;7826;49.784;9.934;2022-09-09T07:26:14;19.30;99.90
15450;DHT22;7826;49.784;9.934;2022-09-09T07:28:41;19.60;99.90
15450;DHT22;7826;49.784;9.934;2022-09-09T07:31:14;20.00;99.90
15450;DHT22;7826;49.784;9.934;2022-09-09T07:33:43;20.40;99.90
15450;DHT22;7826;49.784;9.934;2022-09-09T07:36:14;20.90;99.90
15450;DHT22;7826;49.784;9.934;2022-09-09T07:38:46;21.10;96.40
15450;DHT22;7826;49.784;9.934;2022-09-09T07:41:17;21.00;95.70
15450;DHT22;7826;49.784;9.934;2022-09-09T07:43:46;21.40;95.90
15450;DHT22;7826;49.784;9.934;2022-09-09T07:46:15;21.70;93.50
15450;DHT22;7826;49.784;9.934;2022-09-09T07:48:47;21.60;92.50
15450;DHT22;7826;49.784;9.934;2022-09-09T07:51:20;21.50;91.80
15450;DHT22;7826;49.784;9.934;2022-09-09T07:53:48;21.40;92.10
15450;DHT22;7826;49.784;9.934;2022-09-09T07:56:17;21.50;91.60
15450;DHT22;7826;49.784;9.934;2022-09-09T07:58:47;21.40;91.60
15450;DHT22;7826;49.784;9.934;2022-09-09T08:01:34;22.00;91.70
15450;DHT22;7826;49.784;9.934;2022-09-09T08:04:05;22.60;90.60
15450;DHT22;7826;49.784;9.934;2022-09-09T08:06:38;23.00;87.80
15450;DHT22;7826;49.784;9.934;2022-09-09T08:09:06;23.80;83.30
15450;DHT22;7826;49.784;9.934;2022-09-09T08:11:32;24.30;77.70
15450;DHT22;7826;49.784;9.934;2022-09-09T08:13:59;24.20;77.10
15450;DHT22;7826;49.784;9.934;2022-09-09T08:16:28;24.70;76.40
15450;DHT22;7826;49.784;9.934;2022-09-09T08:18:56;25.60;74.40
15450;DHT22;7826;49.784;9.934;2022-09-09T08:21:29;25.50;68.10
15450;DHT22;7826;49.784;9.934;2022-09-09T08:23:56;25.60;68.50
15450;DHT22;7826;49.784;9.934;2022-09-09T08:26:26;25.50;66.10
15450;DHT22;7826;49.784;9.934;2022-09-09T08:28:55;25.50;66.40
15450;DHT22;7826;49.784;9.934;2022-09-09T08:31:25;26.50;66.40
15450;DHT22;7826;49.784;9.934;2022-09-09T08:33:52;26.70;61.80
15450;DHT22;7826;49.784;9.934;2022-09-09T08:36:20;27.40;60.40
15450;DHT22;7826;49.784;9.934;2022-09-09T08:38:49;27.40;58.60
15450;DHT22;7826;49.784;9.934;2022-09-09T08:46:36;27.50;59.30
15450;DHT22;7826;49.784;9.934;2022-09-09T08:51:59;27.70;57.00
15450;DHT22;7826;49.784;9.934;2022-09-09T08:54:30;27.60;56.90
15450;DHT22;7826;49.784;9.934;2022-09-09T08:56:59;27.40;58.40
15450;DHT22;7826;49.784;9.934;2022-09-09T08:59:25;27.40;57.60
15450;DHT22;7826;49.784;9.934;2022-09-09T09:04:37;27.00;56.20
15450;DHT22;7826;49.784;9.934;2022-09-09T09:09:57;26.50;58.60
15450;DHT22;7826;49.784;9.934;2022-09-09T09:12:32;26.50;57.70
15450;DHT22;7826;49.784;9.934;2022-09-09T09:15:01;26.50;58.30
15450;DHT22;7826;49.784;9.934;2022-09-09T09:17:29;26.90;58.20
15450;DHT22;7826;49.784;9.934;2022-09-09T09:19:59;27.20;57.40
15450;DHT22;7826;49.784;9.934;2022-09-09T09:22:51;27.10;55.80
15450;DHT22;7826;49.784;9.934;2022-09-09T09:25:29;26.70;56.50
15450;DHT22;7826;49.784;9.934;2022-09-09T09:28:13;26.90;57.20
15450;DHT22;7826;49.784;9.934;2022-09-09T09:33:41;26.20;57.50
15450;DHT22;7826;49.784;9.934;2022-09-09T09:36:09;26.60;57.90
15450;DHT22;7826;49.784;9.934;2022-09-09T09:38:36;26.30;57.60
15450;DHT22;7826;49.784;9.934;2022-09-09T09:41:03;26.00;58.50
15450;DHT22;7826;49.784;9.934;2022-09-09T09:43:35;26.10;58.40
15450;DHT22;7826;49.784;9.934;2022-09-09T09:46:05;26.20;57.30
15450;DHT22;7826;49.784;9.934;2022-09-09T09:48:44;26.00;56.60
15450;DHT22;7826;49.784;9.934;2022-09-09T09:51:22;25.80;57.40
15450;DHT22;7826;49.784;9.934;2022-09-09T09:53:52;25.80;56.60
15450;DHT22;7826;49.784;9.934;2022-09-09T09:56:27;25.70;56.90
15450;DHT22;7826;49.784;9.934;2022-09-09T09:58:58;25.30;57.70
15450;DHT22;7826;49.784;9.934;2022-09-09T10:01:29;25.20;58.10
15450;DHT22;7826;49.784;9.934;2022-09-09T10:04:02;24.70;58.20
15450;DHT22;7826;49.784;9.934;2022-09-09T10:06:33;24.50;59.50
15450;DHT22;7826;49.784;9.934;2022-09-09T10:09:02;24.20;60.00
15450;DHT22;7826;49.784;9.934;2022-09-09T10:11:33;24.00;59.80
15450;DHT22;7826;49.784;9.934;2022-09-09T10:19:16;23.50;59.70
15450;DHT22;7826;49.784;9.934;2022-09-09T10:32:37;23.50;60.10
15450;DHT22;7826;49.784;9.934;2022-09-09T10:35:19;23.50;60.40
15450;DHT22;7826;49.784;9.934;2022-09-09T10:40:39;23.20;64.00
15450;DHT22;7826;49.784;9.934;2022-09-09T10:48:40;19.40;95.30
15450;DHT22;7826;49.784;9.934;2022-09-09T10:51:40;17.60;99.90
15450;DHT22;7826;49.784;9.934;2022-09-09T10:54:44;16.20;99.90
15450;DHT22;7826;49.784;9.934;2022-09-09T10:57:33;15.20;99.90
15450;DHT22;7826;49.784;9.934;2022-09-09T11:02:58;14.60;99.90
15450;DHT22;7826;49.784;9.934;2022-09-09T11:08:12;14.50;99.90
15450;DHT22;7826;49.784;9.934;2022-09-09T11:10:46;14.60;99.90
15450;DHT22;7826;49.784;9.934;2022-09-09T11:13:19;15.00;99.90
15450;DHT22;7826;49.784;9.934;2022-09-09T11:15:53;15.40;99.90
15450;DHT22;7826;49.784;9.934;2022-09-09T11:18:23;15.70;99.90
15450;DHT22;7826;49.784;9.934;2022-09-09T11:21:00;16.00;99.90
15450;DHT22;7826;49.784;9.934;2022-09-09T11:23:40;16.30;99.90
15450;DHT22;7826;49.784;9.934;2022-09-09T11:26:14;16.50;99.90
15450;DHT22;7826;49.784;9.934;2022-09-09T11:28:59;16.60;99.90
15450;DHT22;7826;49.784;9.934;2022-09-09T11:40:09;17.00;99.90
15450;DHT22;7826;49.784;9.934;2022-09-09T11:42:40;17.00;99.90
15450;DHT22;7826;49.784;9.934;2022-09-09T11:45:26;17.00;99.90
15450;DHT22;7826;49.784;9.934;2022-09-09T11:47:59;17.00;99.90
15450;DHT22;7826;49.784;9.934;2022-09-09T11:50:35;17.10;99.90
15450;DHT22;7826;49.784;9.934;2022-09-09T11:53:05;17.20;99.90
15450;DHT22;7826;49.784;9.934;2022-09-09T11:55:34;17.30;99.90
15450;DHT22;7826;49.784;9.934;2022-09-09T12:00:41;17.10;99.90
15450;DHT22;7826;49.784;9.934;2022-09-09T12:06:07;17.10;99.90
15450;DHT22;7826;49.784;9.934;2022-09-09T12:08:35;17.20;99.90
15450;DHT22;7826;49.784;9.934;2022-09-09T12:11:03;17.20;99.90
15450;DHT22;7826;49.784;9.934;2022-09-09T12:13:30;17.20;99.90
15450;DHT22;7826;49.784;9.934;2022-09-09T12:15:59;17.30;99.90
15450;DHT22;7826;49.784;9.934;2022-09-09T12:18:36;17.30;99.90
15450;DHT22;7826;49.784;9.934;2022-09-09T12:24:09;17.70;99.90
15450;DHT22;7826;49.784;9.934;2022-09-09T12:26:43;17.80;99.90
15450;DHT22;7826;49.784;9.934;2022-09-09T12:29:23;17.70;99.90
15450;DHT22;7826;49.784;9.934;2022-09-09T12:32:10;17.40;99.90
15450;DHT22;7826;49.784;9.934;2022-09-09T12:37:44;17.50;99.90
15450;DHT22;7826;49.784;9.934;2022-09-09T12:40:22;17.40;99.90
15450;DHT22;7826;49.784;9.934;2022-09-09T12:42:49;17.30;99.90
15450;DHT22;7826;49.784;9.934;2022-09-09T12:48:05;17.60;99.90
15450;DHT22;7826;49.784;9.934;2022-09-09T12:50:38;17.90;99.90
15450;DHT22;7826;49.784;9.934;2022-09-09T12:53:26;18.20;99.90
15450;DHT22;7826;49.784;9.934;2022-09-09T12:56:05;18.20;99.90
15450;DHT22;7826;49.784;9.934;2022-09-09T12:58:35;18.20;99.90
15450;DHT22;7826;49.784;9.934;2022-09-09T13:01:04;17.90;99.90
15450;DHT22;7826;49.784;9.934;2022-09-09T13:03:32;18.00;99.90
15450;DHT22;7826;49.784;9.934;2022-09-09T13:06:11;17.80;99.90
15450;DHT22;7826;49.784;9.934;2022-09-09T13:08:38;17.70;99.90
15450;DHT22;7826;49.784;9.934;2022-09-09T13:11:10;17.60;99.90
15450;DHT22;7826;49.784;9.934;2022-09-09T13:13:40;17.40;99.90
15450;DHT22;7826;49.784;9.934;2022-09-09T13:16:27;17.20;99.90
15450;DHT22;7826;49.784;9.934;2022-09-09T13:19:02;17.10;99.90
15450;DHT22;7826;49.784;9.934;2022-09-09T13:21:34;17.10;99.90
15450;DHT22;7826;49.784;9.934;2022-09-09T13:24:01;17.30;99.90
15450;DHT22;7826;49.784;9.934;2022-09-09T13:26:30;17.30;99.90
15450;DHT22;7826;49.784;9.934;2022-09-09T13:29:16;17.50;99.90
15450;DHT22;7826;49.784;9.934;2022-09-09T13:31:44;17.70;99.90
15450;DHT22;7826;49.784;9.934;2022-09-09T13:37:02;17.80;99.90
15450;DHT22;7826;49.784;9.934;2022-09-09T13:39:34;17.80;99.90
15450;DHT22;7826;49.784;9.934;2022-09-09T13:42:02;17.60;99.90
15450;DHT22;7826;49.784;9.934;2022-09-09T13:44:33;17.40;99.90
15450;DHT22;7826;49.784;9.934;2022-09-09T13:47:03;17.40;99.90
15450;DHT22;7826;49.784;9.934;2022-09-09T13:49:30;17.40;99.90
15450;DHT22;7826;49.784;9.934;2022-09-09T13:52:14;17.40;99.90
15450;DHT22;7826;49.784;9.934;2022-09-09T13:54:46;17.40;99.90
15450;DHT22;7826;49.784;9.934;2022-09-09T13:57:21;17.20;99.90
15450;DHT22;7826;49.784;9.934;2022-09-09T13:59:47;17.00;99.90
15450;DHT22;7826;49.784;9.934;2022-09-09T14:02:15;17.00;99.90
15450;DHT22;7826;49.784;9.934;2022-09-09T14:04:43;16.90;99.90
15450;DHT22;7826;49.784;9.934;2022-09-09T14:07:13;17.00;99.90
15450;DHT22;7826;49.784;9.934;2022-09-09T14:09:40;17.00;99.90
15450;DHT22;7826;49.784;9.934;2022-09-09T14:12:12;16.90;99.90
15450;DHT22;7826;49.784;9.934;2022-09-09T14:14:40;16.90;99.90
15450;DHT22;7826;49.784;9.934;2022-09-09T14:17:08;17.00;99.90
15450;DHT22;7826;49.784;9.934;2022-09-09T14:19:34;17.00;99.90
15450;DHT22;7826;49.784;9.934;2022-09-09T14:22:01;17.10;99.90
15450;DHT22;7826;49.784;9.934;2022-09-09T14:24:27;17.20;99.90
15450;DHT22;7826;49.784;9.934;2022-09-09T14:26:54;17.40;99.90
15450;DHT22;7826;49.784;9.934;2022-09-09T14:29:20;17.60;99.90
15450;DHT22;7826;49.784;9.934;2022-09-09T14:31:46;17.70;99.90
15450;DHT22;7826;49.784;9.934;2022-09-09T14:34:13;17.60;99.90
15450;DHT22;7826;49.784;9.934;2022-09-09T14:36:40;17.60;99.90
15450;DHT22;7826;49.784;9.934;2022-09-09T14:39:07;17.40;99.90
15450;DHT22;7826;49.784;9.934;2022-09-09T14:41:34;17.40;99.90
15450;DHT22;7826;49.784;9.934;2022-09-09T14:44:00;17.20;99.90
15450;DHT22;7826;49.784;9.934;2022-09-09T14:46:26;17.10;99.90
15450;DHT22;7826;49.784;9.934;2022-09-09T14:48:53;16.80;99.90
15450;DHT22;7826;49.784;9.934;2022-09-09T14:51:24;16.90;99.90
15450;DHT22;7826;49.784;9.934;2022-09-09T14:53:55;16.70;99.90
15450;DHT22;7826;49.784;9.934;2022-09-09T14:56:24;16.20;99.90
15450;DHT22;7826;49.784;9.934;2022-09-09T14:58:52;15.80;99.90
15450;DHT22;7826;49.784;9.934;2022-09-09T15:01:19;15.60;99.90
15450;DHT22;7826;49.784;9.934;2022-09-09T15:04:00;15.50;99.90
15450;DHT22;7826;49.784;9.934;2022-09-09T15:06:28;15.60;99.90
15450;DHT22;7826;49.784;9.934;2022-09-09T15:08:56;15.70;99.90
15450;DHT22;7826;49.784;9.934;2022-09-09T15:11:30;15.60;99.90
15450;DHT22;7826;49.784;9.934;2022-09-09T15:13:58;15.70;99.90
15450;DHT22;7826;49.784;9.934;2022-09-09T15:16:26;15.80;99.90
15450;DHT22;7826;49.784;9.934;2022-09-09T15:18:56;16.00;99.90
15450;DHT22;7826;49.784;9.934;2022-09-09T15:21:25;16.20;99.90
15450;DHT22;7826;49.784;9.934;2022-09-09T15:23:51;16.40;99.90
15450;DHT22;7826;49.784;9.934;2022-09-09T15:26:19;16.50;99.90
15450;DHT22;7826;49.784;9.934;2022-09-09T15:28:47;16.60;99.90
15450;DHT22;7826;49.784;9.934;2022-09-09T15:31:15;16.60;99.90
15450;DHT22;7826;49.784;9.934;2022-09-09T15:33:51;16.70;99.90
15450;DHT22;7826;49.784;9.934;2022-09-09T15:36:25;16.70;99.90
15450;DHT22;7826;49.784;9.934;2022-09-09T15:38:52;16.60;99.90
15450;DHT22;7826;49.784;9.934;2022-09-09T15:41:20;16.60;99.90
15450;DHT22;7826;49.784;9.934;2022-09-09T15:43:49;16.60;99.90
15450;DHT22;7826;49.784;9.934;2022-09-09T15:46:40;16.60;99.90
15450;DHT22;7826;49.784;9.934;2022-09-09T15:49:24;16.50;99.90
15450;DHT22;7826;49.784;9.934;2022-09-09T15:51:56;16.60;99.90
15450;DHT22;7826;49.784;9.934;2022-09-09T15:54:24;16.60;99.90
15450;DHT22;7826;49.784;9.934;2022-09-09T15:56:56;16.60;99.90
15450;DHT22;7826;49.784;9.934;2022-09-09T15:59:23;16.70;99.90
15450;DHT22;7826;49.784;9.934;2022-09-09T16:01:50;16.70;99.90
15450;DHT22;7826;49.784;9.934;2022-09-09T16:04:20;16.70;99.90
15450;DHT22;7826;49.784;9.934;2022-09-09T16:06:51;16.70;99.90
15450;DHT22;7826;49.784;9.934;2022-09-09T16:09:18;16.50;99.90
15450;DHT22;7826;49.784;9.934;2022-09-09T16:11:45;16.40;99.90
15450;DHT22;7826;49.784;9.934;2022-09-09T16:14:13;16.40;99.90
15450;DHT22;7826;49.784;9.934;2022-09-09T16:16:39;16.40;99.90
15450;DHT22;7826;49.784;9.934;2022-09-09T16:19:10;16.30;99.90
15450;DHT22;7826;49.784;9.934;2022-09-09T16:21:43;16.30;99.90
15450;DHT22;7826;49.784;9.934;2022-09-09T16:24:12;16.30;99.90
15450;DHT22;7826;49.784;9.934;2022-09-09T16:26:42;16.40;99.90
15450;DHT22;7826;49.784;9.934;2022-09-09T16:29:12;16.30;99.90
15450;DHT22;7826;49.784;9.934;2022-09-09T16:31:39;16.20;99.90
15450;DHT22;7826;49.784;9.934;2022-09-09T16:34:07;16.10;99.90
15450;DHT22;7826;49.784;9.934;2022-09-09T16:36:36;16.20;99.90
15450;DHT22;7826;49.784;9.934;2022-09-09T16:39:10;16.10;99.90
15450;DHT22;7826;49.784;9.934;2022-09-09T16:41:37;16.10;99.90
15450;DHT22;7826;49.784;9.934;2022-09-09T16:44:06;16.00;99.90
15450;DHT22;7826;49.784;9.934;2022-09-09T16:46:38;15.90;99.90
15450;DHT22;7826;49.784;9.934;2022-09-09T16:49:07;15.70;99.90
15450;DHT22;7826;49.784;9.934;2022-09-09T16:51:36;15.70;99.90
15450;DHT22;7826;49.784;9.934;2022-09-09T16:54:04;15.50;99.90
15450;DHT22;7826;49.784;9.934;2022-09-09T16:56:35;15.30;99.90
15450;DHT22;7826;49.784;9.934;2022-09-09T16:59:05;15.20;99.90
15450;DHT22;7826;49.784;9.934;2022-09-09T17:01:34;15.20;99.90
15450;DHT22;7826;49.784;9.934;2022-09-09T17:04:05;15.30;99.90
15450;DHT22;7826;49.784;9.934;2022-09-09T17:06:33;15.20;99.90
15450;DHT22;7826;49.784;9.934;2022-09-09T17:09:09;15.20;99.90
15450;DHT22;7826;49.784;9.934;2022-09-09T17:11:37;15.30;99.90
15450;DHT22;7826;49.784;9.934;2022-09-09T17:14:05;15.30;99.90
15450;DHT22;7826;49.784;9.934;2022-09-09T17:16:33;15.30;99.90
15450;DHT22;7826;49.784;9.934;2022-09-09T17:19:00;15.40;99.90
15450;DHT22;7826;49.784;9.934;2022-09-09T17:21:28;15.40;99.90
15450;DHT22;7826;49.784;9.934;2022-09-09T17:23:55;15.40;99.90
15450;DHT22;7826;49.784;9.934;2022-09-09T17:26:25;15.40;99.90
15450;DHT22;7826;49.784;9.934;2022-09-09T17:28:53;15.30;99.90
15450;DHT22;7826;49.784;9.934;2022-09-09T17:31:20;15.40;99.90
15450;DHT22;7826;49.784;9.934;2022-09-09T17:33:49;15.30;99.90
15450;DHT22;7826;49.784;9.934;2022-09-09T17:36:18;15.40;99.90
15450;DHT22;7826;49.784;9.934;2022-09-09T17:38:45;15.50;99.90
15450;DHT22;7826;49.784;9.934;2022-09-09T17:41:19;15.40;99.90
15450;DHT22;7826;49.784;9.934;2022-09-09T17:43:46;15.40;99.90
15450;DHT22;7826;49.784;9.934;2022-09-09T17:46:35;15.40;99.90
15450;DHT22;7826;49.784;9.934;2022-09-09T17:49:08;15.30;99.90
15450;DHT22;7826;49.784;9.934;2022-09-09T17:51:35;15.30;99.90
15450;DHT22;7826;49.784;9.934;2022-09-09T17:54:07;15.40;99.90
15450;DHT22;7826;49.784;9.934;2022-09-09T17:56:35;15.40;99.90
15450;DHT22;7826;49.784;9.934;2022-09-09T17:59:04;15.40;99.90
15450;DHT22;7826;49.784;9.934;2022-09-09T18:01:34;15.40;99.90
15450;DHT22;7826;49.784;9.934;2022-09-09T18:04:03;15.40;99.90
15450;DHT22;7826;49.784;9.934;2022-09-09T18:06:38;15.40;99.90
15450;DHT22;7826;49.784;9.934;2022-09-09T18:09:10;15.40;99.90
15450;DHT22;7826;49.784;9.934;2022-09-09T18:11:42;15.40;99.90
15450;DHT22;7826;49.784;9.934;2022-09-09T18:14:17;15.40;99.90
15450;DHT22;7826;49.784;9.934;2022-09-09T18:16:44;15.40;99.90
15450;DHT22;7826;49.784;9.934;2022-09-09T18:19:12;15.40;99.90